createdAt,value
2022-11-22T00:05:55.542Z,100.00
2022-11-22T00:11:57.552Z,100.00
2022-11-22T00:18:02.536Z,100.00
2022-11-22T00:24:04.852Z,100.00
2022-11-22T00:30:08.035Z,100.00
2022-11-22T00:36:10.042Z,100.00
2022-11-22T00:42:13.888Z,100.00
2022-11-22T00:48:15.847Z,100.00
2022-11-22T00:54:17.789Z,100.00
2022-11-22T01:00:20.060Z,100.00
2022-11-22T01:06:22.277Z,100.00
2022-11-22T01:12:24.216Z,100.00
2022-11-22T01:18:26.275Z,100.00
2022-11-22T01:24:28.214Z,100.00
2022-11-22T01:30:30.132Z,100.00
2022-11-22T01:36:40.901Z,100.00
2022-11-22T01:42:58.637Z,100.00
2022-11-22T01:49:25.463Z,100.00
2022-11-22T01:55:27.495Z,100.00
2022-11-22T02:01:30.312Z,100.00
2022-11-22T02:07:56.857Z,100.00
2022-11-22T02:13:59.454Z,100.00
2022-11-22T02:20:01.618Z,100.00
2022-11-22T02:26:04.092Z,100.00
2022-11-22T02:32:06.091Z,100.00
2022-11-22T02:38:17.783Z,100.00
2022-11-22T02:44:20.732Z,100.00
2022-11-22T02:50:22.665Z,100.00
2022-11-22T02:56:24.601Z,100.00
2022-11-22T03:02:31.784Z,100.00
2022-11-22T03:08:34.439Z,100.00
2022-11-22T03:14:36.380Z,100.00
2022-11-22T03:20:53.095Z,100.00
2022-11-22T03:26:55.006Z,100.00
2022-11-22T03:32:56.897Z,100.00
2022-11-22T03:38:59.351Z,100.00
2022-11-22T03:45:01.257Z,100.00
2022-11-22T03:51:05.712Z,100.00
2022-11-22T03:57:07.634Z,99.85
2022-11-22T04:03:18.797Z,100.00
2022-11-22T04:09:20.747Z,99.97
2022-11-22T04:15:22.756Z,100.00
2022-11-22T04:21:33.801Z,100.00
2022-11-22T04:27:35.685Z,100.00
2022-11-22T04:33:37.670Z,100.00
2022-11-22T04:39:39.615Z,100.00
2022-11-22T04:45:41.711Z,100.00
2022-11-22T04:52:02.386Z,100.00
2022-11-22T04:58:04.360Z,100.00
2022-11-22T05:04:15.902Z,100.00
2022-11-22T05:10:22.784Z,100.00
2022-11-22T05:16:27.908Z,100.00
2022-11-22T05:22:48.574Z,100.00
2022-11-22T05:28:51.030Z,100.00
2022-11-22T05:34:52.932Z,100.00
2022-11-22T05:40:54.889Z,100.00
2022-11-22T05:46:56.941Z,100.00
2022-11-22T05:53:03.430Z,100.00
2022-11-22T05:59:05.419Z,100.00
2022-11-22T06:05:07.852Z,100.00
2022-11-22T06:11:33.023Z,100.00
2022-11-22T06:17:35.018Z,100.00
2022-11-22T06:23:37.034Z,100.00
2022-11-22T06:29:38.943Z,100.00
2022-11-22T06:35:40.886Z,100.00
2022-11-22T06:41:42.982Z,100.00
2022-11-22T06:47:44.929Z,100.00
2022-11-22T06:53:49.201Z,100.00
2022-11-22T06:59:51.420Z,100.00
2022-11-22T07:05:53.919Z,100.00
2022-11-22T07:11:55.825Z,100.00
2022-11-22T07:17:57.727Z,100.00
2022-11-22T07:24:11.777Z,100.00
2022-11-22T07:30:14.505Z,100.00
2022-11-22T07:36:22.256Z,100.00
2022-11-22T07:42:26.368Z,100.00
2022-11-22T07:48:28.674Z,100.00
2022-11-22T07:54:30.587Z,100.00
2022-11-22T08:00:32.560Z,100.00
2022-11-22T08:06:34.510Z,100.00
2022-11-22T08:12:36.428Z,100.00
2022-11-22T08:18:40.640Z,99.31
2022-11-22T08:25:13.142Z,98.84
2022-11-22T08:31:19.757Z,98.84
2022-11-22T08:37:21.737Z,98.60
2022-11-22T08:43:24.000Z,99.25
2022-11-22T08:49:25.937Z,97.62
2022-11-22T08:55:30.840Z,97.00
2022-11-22T09:01:33.351Z,97.36
2022-11-22T09:13:57.691Z,97.92
2022-11-22T09:20:10.076Z,96.41
2022-11-22T09:26:18.685Z,95.80
2022-11-22T09:32:20.678Z,96.58
2022-11-22T09:38:22.594Z,96.39
2022-11-22T09:45:05.779Z,96.21
2022-11-22T09:51:15.221Z,95.42
2022-11-22T09:57:24.982Z,95.28
2022-11-22T10:03:45.574Z,95.30
2022-11-22T10:09:57.381Z,94.70
2022-11-22T10:16:21.853Z,95.00
2022-11-22T10:22:25.649Z,94.63
2022-11-22T10:29:23.534Z,91.19
2022-11-22T10:36:02.100Z,92.35
2022-11-22T10:42:26.430Z,92.26
2022-11-22T10:49:03.356Z,91.98
2022-11-22T10:55:11.488Z,91.47
2022-11-22T11:01:31.952Z,90.72
2022-11-22T11:07:35.170Z,89.19
2022-11-22T11:13:45.502Z,87.54
2022-11-22T11:19:49.877Z,86.75
2022-11-22T11:25:52.504Z,84.74
2022-11-22T11:32:13.951Z,84.00
2022-11-22T11:38:36.000Z,84.17
2022-11-22T11:44:38.401Z,83.61
2022-11-22T11:50:43.454Z,83.32
2022-11-22T11:57:11.472Z,81.70
2022-11-22T12:03:19.621Z,82.84
2022-11-22T12:09:35.431Z,83.84
2022-11-22T12:15:58.939Z,84.22
2022-11-22T12:22:48.414Z,85.38
2022-11-22T12:29:00.102Z,86.10
2022-11-22T12:35:18.534Z,87.99
2022-11-22T12:41:35.948Z,88.95
2022-11-22T12:47:41.816Z,89.46
2022-11-22T12:54:02.531Z,89.60
2022-11-22T13:00:17.624Z,90.59
2022-11-22T13:06:37.157Z,90.75
2022-11-22T13:12:41.674Z,89.53
2022-11-22T13:19:19.983Z,88.79
2022-11-22T13:25:59.195Z,86.46
2022-11-22T13:32:10.917Z,86.96
2022-11-22T13:38:17.288Z,86.82
2022-11-22T13:44:31.440Z,86.15
2022-11-22T13:50:44.440Z,87.03
2022-11-22T13:56:47.903Z,86.42
2022-11-22T14:02:53.207Z,86.46
2022-11-22T14:09:15.740Z,87.22
2022-11-22T14:16:10.451Z,87.88
2022-11-22T14:23:34.398Z,89.11
2022-11-22T14:30:09.400Z,90.43
2022-11-22T14:36:11.458Z,91.14
2022-11-22T14:42:43.326Z,91.29
2022-11-22T14:49:05.054Z,92.28
2022-11-22T14:55:17.177Z,92.72
2022-11-22T15:01:47.822Z,94.19
2022-11-22T15:09:13.543Z,94.73
2022-11-22T16:01:19.582Z,96.33
2022-11-22T16:07:48.302Z,96.54
2022-11-22T16:13:50.384Z,96.80
2022-11-22T16:26:21.950Z,96.71
2022-11-22T16:32:26.972Z,96.42
2022-11-22T16:38:29.612Z,96.27
2022-11-22T16:44:31.547Z,96.32
2022-11-22T16:50:40.098Z,96.59
2022-11-22T16:56:42.771Z,97.37
2022-11-22T17:02:44.778Z,97.67
2022-11-22T17:08:48.686Z,97.24
2022-11-22T17:14:51.962Z,98.01
2022-11-22T17:20:54.074Z,97.97
2022-11-22T17:27:05.645Z,97.45
2022-11-22T17:33:08.918Z,97.73
2022-11-22T17:39:16.562Z,97.92
2022-11-22T17:45:18.587Z,97.53
2022-11-22T17:51:27.164Z,97.89
2022-11-22T17:57:36.766Z,97.47
2022-11-22T18:03:42.901Z,97.80
2022-11-22T18:09:44.976Z,97.77
2022-11-22T18:15:58.621Z,97.43
2022-11-22T18:22:03.809Z,98.14
2022-11-22T18:28:32.153Z,96.77
2022-11-22T18:34:37.789Z,97.78
2022-11-22T18:40:51.967Z,96.37
2022-11-22T18:46:53.961Z,97.22
2022-11-22T18:52:58.359Z,97.40
2022-11-22T18:59:00.449Z,97.58
2022-11-22T19:05:27.059Z,97.78
2022-11-22T19:11:31.727Z,97.70
2022-11-22T19:17:55.432Z,97.32
2022-11-22T19:24:04.287Z,95.85
2022-11-22T19:30:32.994Z,95.66
2022-11-22T19:43:35.181Z,96.54
2022-11-22T19:49:37.245Z,96.68
2022-11-22T19:56:07.148Z,96.49
2022-11-22T20:02:13.518Z,95.89
2022-11-22T20:08:15.414Z,95.25
2022-11-22T20:14:17.438Z,93.64
2022-11-22T20:20:19.389Z,94.22
2022-11-22T20:26:22.833Z,94.03
2022-11-22T20:32:24.792Z,95.06
2022-11-22T20:38:26.713Z,95.38
2022-11-22T20:44:29.122Z,94.70
2022-11-22T20:50:31.311Z,94.01
2022-11-22T20:56:41.747Z,94.01
2022-11-22T21:02:43.768Z,94.63
2022-11-22T21:08:46.288Z,94.51
2022-11-22T21:14:52.517Z,95.10
2022-11-22T21:21:11.764Z,95.57
2022-11-22T21:27:16.644Z,95.20
2022-11-22T21:33:18.555Z,94.89
2022-11-22T21:39:20.527Z,95.51
2022-11-22T21:45:22.495Z,95.48
2022-11-22T21:51:26.587Z,94.83
2022-11-22T21:57:34.599Z,94.24
2022-11-22T22:03:36.521Z,94.60
2022-11-22T22:09:38.444Z,95.38
2022-11-22T22:15:40.431Z,95.11
2022-11-22T22:21:47.966Z,95.85
2022-11-22T22:27:59.082Z,95.61
2022-11-22T22:34:01.099Z,95.21
2022-11-22T22:40:03.805Z,94.39
2022-11-22T22:46:29.251Z,95.09
2022-11-22T22:52:31.160Z,94.88
2022-11-22T22:58:33.922Z,93.59
2022-11-22T23:04:38.506Z,94.13
2022-11-22T23:10:42.123Z,94.80
2022-11-22T23:16:44.052Z,94.90
2022-11-22T23:23:02.648Z,95.24
2022-11-22T23:29:05.163Z,95.04
2022-11-22T23:35:16.076Z,95.54
2022-11-22T23:41:30.377Z,95.66
2022-11-22T23:47:37.319Z,95.62
2022-11-22T23:53:42.949Z,95.42
2022-11-22T23:59:44.960Z,95.58
